createdAt,value
2022-09-23T00:00:20.675Z,13.68
2022-09-23T00:01:37.111Z,13.41
2022-09-23T00:02:53.537Z,13.30
2022-09-23T00:04:09.895Z,13.51
2022-09-23T00:05:28.045Z,13.80
2022-09-23T00:06:45.875Z,13.71
2022-09-23T00:08:03.716Z,13.77
2022-09-23T00:09:21.526Z,13.81
2022-09-23T00:10:37.946Z,13.56
2022-09-23T00:11:54.615Z,13.80
2022-09-23T00:13:10.976Z,13.72
2022-09-23T00:14:28.819Z,13.66
2022-09-23T00:15:46.714Z,13.82
2022-09-23T00:17:04.580Z,13.91
2022-09-23T00:18:21.199Z,13.95
2022-09-23T00:19:39.041Z,13.92
2022-09-23T00:20:56.881Z,14.00
2022-09-23T00:22:14.807Z,14.50
2022-09-23T00:23:32.670Z,14.57
2022-09-23T00:24:49.328Z,14.78
2022-09-23T00:26:07.144Z,14.75
2022-09-23T00:27:25.053Z,14.67
2022-09-23T00:28:41.462Z,14.94
2022-09-23T00:29:59.316Z,15.10
2022-09-23T00:31:16.006Z,15.05
2022-09-23T00:32:33.862Z,15.09
2022-09-23T00:33:51.722Z,15.07
2022-09-23T00:35:09.551Z,15.11
2022-09-23T00:36:25.933Z,15.03
2022-09-23T00:37:42.592Z,15.15
2022-09-23T00:38:59.071Z,15.39
2022-09-23T00:40:15.493Z,15.56
2022-09-23T00:41:33.286Z,15.32
2022-09-23T00:42:49.702Z,15.13
2022-09-23T00:44:07.785Z,15.44
2022-09-23T00:45:24.253Z,15.23
2022-09-23T00:46:40.631Z,15.30
2022-09-23T00:47:58.468Z,15.45
2022-09-23T00:49:14.846Z,15.26
2022-09-23T00:50:33.004Z,15.39
2022-09-23T00:51:49.377Z,15.72
2022-09-23T00:53:07.217Z,15.91
2022-09-23T00:54:25.036Z,15.75
2022-09-23T00:55:42.966Z,15.81
2022-09-23T00:56:59.647Z,16.04
2022-09-23T00:58:16.030Z,16.27
2022-09-23T00:59:33.847Z,16.54
2022-09-23T01:00:50.444Z,16.14
2022-09-23T01:02:08.305Z,16.07
2022-09-23T01:03:24.997Z,16.53
2022-09-23T01:04:42.802Z,16.63
2022-09-23T01:06:00.679Z,16.62
2022-09-23T01:07:17.057Z,16.85
2022-09-23T01:08:34.887Z,16.58
2022-09-23T01:09:51.542Z,16.73
2022-09-23T01:11:09.411Z,17.30
2022-09-23T01:12:27.210Z,17.34
2022-09-23T01:13:45.041Z,17.35
2022-09-23T01:15:02.855Z,17.68
2022-09-23T01:16:21.006Z,17.85
2022-09-23T01:17:37.419Z,18.13
2022-09-23T01:18:55.252Z,18.11
2022-09-23T01:20:11.602Z,18.35
2022-09-23T01:21:28.012Z,18.41
2022-09-23T01:22:46.113Z,18.55
2022-09-23T01:24:02.614Z,18.21
2022-09-23T01:25:20.428Z,18.52
2022-09-23T01:26:37.794Z,18.44
2022-09-23T01:27:55.605Z,18.58
2022-09-23T01:29:12.274Z,18.63
2022-09-23T01:30:28.717Z,18.77
2022-09-23T01:31:46.544Z,18.81
2022-09-23T01:33:02.905Z,19.08
2022-09-23T01:34:19.277Z,18.62
2022-09-23T01:35:36.057Z,18.60
2022-09-23T01:36:52.429Z,18.65
2022-09-23T01:38:10.246Z,19.12
2022-09-23T01:39:28.099Z,18.96
2022-09-23T01:40:45.976Z,18.93
2022-09-23T01:42:02.637Z,19.40
2022-09-23T01:43:20.457Z,19.30
2022-09-23T01:44:38.288Z,19.23
2022-09-23T01:45:56.138Z,19.60
2022-09-23T01:47:13.976Z,19.42
2022-09-23T01:48:30.633Z,19.28
2022-09-23T01:49:47.030Z,19.17
2022-09-23T01:51:03.391Z,19.66
2022-09-23T01:52:19.783Z,19.36
2022-09-23T01:53:36.147Z,19.51
2022-09-23T01:54:54.292Z,20.04
2022-09-23T01:56:12.106Z,19.54
2022-09-23T01:57:29.932Z,19.56
2022-09-23T01:58:46.304Z,19.65
2022-09-23T02:00:04.183Z,19.69
2022-09-23T02:01:20.924Z,19.76
2022-09-23T02:02:38.809Z,19.73
2022-09-23T02:03:55.155Z,19.74
2022-09-23T02:05:13.002Z,19.66
2022-09-23T02:06:29.373Z,19.65
2022-09-23T02:07:47.546Z,19.55
2022-09-23T02:09:03.903Z,19.95
2022-09-23T02:10:20.326Z,19.82
2022-09-23T02:11:36.682Z,19.57
2022-09-23T02:12:54.542Z,20.23
2022-09-23T02:14:11.174Z,19.74
2022-09-23T02:15:27.584Z,19.65
2022-09-23T02:16:45.453Z,20.01
2022-09-23T02:18:03.294Z,19.98
2022-09-23T02:19:19.635Z,20.28
2022-09-23T02:20:37.838Z,20.47
2022-09-23T02:21:55.651Z,20.63
2022-09-23T02:23:13.473Z,20.82
2022-09-23T02:24:31.286Z,20.74
2022-09-23T02:25:49.157Z,21.01
2022-09-23T02:27:05.793Z,20.56
2022-09-23T02:28:22.186Z,20.77
2022-09-23T02:29:40.037Z,20.82
2022-09-23T02:30:56.436Z,21.24
2022-09-23T02:32:14.363Z,21.18
2022-09-23T02:33:31.029Z,21.35
2022-09-23T02:34:48.857Z,21.56
2022-09-23T02:36:07.018Z,21.65
2022-09-23T02:37:27.302Z,21.48
2022-09-23T02:38:43.674Z,21.14
2022-09-23T02:40:00.318Z,21.38
2022-09-23T02:41:18.180Z,21.24
2022-09-23T02:42:34.542Z,21.26
2022-09-23T02:43:50.926Z,21.35
2022-09-23T02:45:07.281Z,21.38
2022-09-23T02:46:24.056Z,21.47
2022-09-23T02:47:40.432Z,21.98
2022-09-23T02:48:56.894Z,22.05
2022-09-23T02:50:13.243Z,21.97
2022-09-23T02:51:31.080Z,21.73
2022-09-23T02:52:47.714Z,21.99
2022-09-23T02:54:04.124Z,22.19
2022-09-23T02:55:20.494Z,22.31
2022-09-23T02:56:38.324Z,22.63
2022-09-23T02:57:56.145Z,22.60
2022-09-23T02:59:12.569Z,22.73
2022-09-23T03:00:30.374Z,22.44
2022-09-23T03:01:46.755Z,22.57
2022-09-23T03:03:03.138Z,23.14
2022-09-23T03:04:19.836Z,22.48
2022-09-23T03:05:36.199Z,22.94
2022-09-23T03:06:52.589Z,23.13
2022-09-23T03:08:10.410Z,23.42
2022-09-23T03:09:28.334Z,23.80
2022-09-23T03:10:48.698Z,23.87
2022-09-23T03:12:05.080Z,23.65
2022-09-23T03:13:22.198Z,23.66
2022-09-23T03:14:40.568Z,23.90
2022-09-23T03:15:56.938Z,23.84
2022-09-23T03:17:13.598Z,24.39
2022-09-23T03:18:29.970Z,24.26
2022-09-23T03:19:46.392Z,24.49
2022-09-23T03:21:02.773Z,24.90
2022-09-23T03:22:19.140Z,24.75
2022-09-23T03:23:35.779Z,24.84
2022-09-23T03:24:54.169Z,25.14
2022-09-23T03:26:10.624Z,25.09
2022-09-23T03:27:27.003Z,25.05
2022-09-23T03:28:47.226Z,25.09
2022-09-23T03:30:05.304Z,25.14
2022-09-23T03:31:21.718Z,26.00
2022-09-23T03:32:39.581Z,25.73
2022-09-23T03:33:57.420Z,25.40
2022-09-23T03:35:15.539Z,25.77
2022-09-23T03:36:31.898Z,25.78
2022-09-23T03:37:49.765Z,25.92
2022-09-23T03:39:06.174Z,26.18
2022-09-23T03:40:22.663Z,26.22
2022-09-23T03:41:39.281Z,26.14
2022-09-23T03:42:55.705Z,26.00
2022-09-23T03:44:12.097Z,25.73
2022-09-23T03:45:29.942Z,25.99
2022-09-23T03:46:46.306Z,25.66
2022-09-23T03:48:04.474Z,26.21
2022-09-23T03:49:22.260Z,25.99
2022-09-23T03:50:40.097Z,26.15
2022-09-23T03:51:56.457Z,26.43
2022-09-23T03:53:14.317Z,26.07
2022-09-23T03:54:30.945Z,26.26
2022-09-23T03:55:47.329Z,26.25
2022-09-23T03:57:03.747Z,26.14
2022-09-23T03:58:21.577Z,26.19
2022-09-23T03:59:37.983Z,26.47
2022-09-23T04:00:56.131Z,26.95
2022-09-23T04:02:13.711Z,26.52
2022-09-23T04:03:31.659Z,26.85
2022-09-23T04:04:48.045Z,27.22
2022-09-23T04:06:05.892Z,27.24
2022-09-23T04:07:22.280Z,27.27
2022-09-23T04:08:38.662Z,27.56
2022-09-23T04:09:56.014Z,27.42
2022-09-23T04:11:12.404Z,27.30
2022-09-23T04:12:28.775Z,27.78
2022-09-23T04:13:46.897Z,27.24
2022-09-23T04:15:04.808Z,27.49
2022-09-23T04:16:21.221Z,27.47
2022-09-23T04:17:37.614Z,27.20
2022-09-23T04:18:55.459Z,27.64
2022-09-23T04:20:12.143Z,27.48
2022-09-23T04:21:29.974Z,27.55
2022-09-23T04:22:48.316Z,27.48
2022-09-23T04:24:06.169Z,27.52
2022-09-23T04:25:24.008Z,27.65
2022-09-23T04:26:40.689Z,27.99
2022-09-23T04:27:57.096Z,27.49
2022-09-23T04:29:14.938Z,27.66
2022-09-23T04:30:32.342Z,27.43
2022-09-23T04:31:50.220Z,27.65
2022-09-23T04:33:08.303Z,27.95
2022-09-23T04:34:26.158Z,28.02
2022-09-23T04:35:44.011Z,27.24
2022-09-23T04:37:01.852Z,27.49
2022-09-23T04:38:19.682Z,27.25
2022-09-23T04:39:37.811Z,27.37
2022-09-23T04:40:55.667Z,27.61
2022-09-23T04:42:13.572Z,27.54
2022-09-23T04:43:31.435Z,27.55
2022-09-23T04:44:49.274Z,27.35
2022-09-23T04:46:07.403Z,27.88
2022-09-23T04:47:25.223Z,27.84
2022-09-23T04:48:43.068Z,27.94
2022-09-23T04:50:00.914Z,27.82
2022-09-23T04:51:18.855Z,27.98
2022-09-23T04:52:35.537Z,28.16
2022-09-23T04:53:53.373Z,27.95
2022-09-23T04:55:11.497Z,28.64
2022-09-23T04:56:29.348Z,28.57
2022-09-23T04:57:47.165Z,28.72
2022-09-23T04:59:05.337Z,28.80
2022-09-23T05:00:24.027Z,29.06
2022-09-23T05:01:42.873Z,28.80
2022-09-23T05:03:00.728Z,28.64
2022-09-23T05:04:18.100Z,29.25
2022-09-23T05:05:34.798Z,29.15
2022-09-23T05:06:52.647Z,29.38
2022-09-23T05:08:13.049Z,30.00
2022-09-23T05:09:30.939Z,30.11
2022-09-23T05:10:48.804Z,30.19
2022-09-23T05:12:07.118Z,30.27
2022-09-23T05:13:24.940Z,30.83
2022-09-23T05:14:42.780Z,30.68
2022-09-23T05:16:00.683Z,30.32
2022-09-23T05:17:18.840Z,30.78
2022-09-23T05:18:37.174Z,30.74
2022-09-23T05:19:55.173Z,30.06
2022-09-23T05:21:13.542Z,30.28
2022-09-23T05:22:31.408Z,30.48
2022-09-23T05:23:50.077Z,30.32
2022-09-23T05:25:07.952Z,30.73
2022-09-23T05:26:26.364Z,30.52
2022-09-23T05:27:44.364Z,30.97
2022-09-23T05:29:04.889Z,30.89
2022-09-23T05:30:24.708Z,30.67
2022-09-23T05:31:42.600Z,30.79
2022-09-23T05:32:59.962Z,30.51
2022-09-23T05:34:17.795Z,30.51
2022-09-23T05:35:35.635Z,30.60
2022-09-23T05:36:53.485Z,30.69
2022-09-23T05:38:11.427Z,31.19
2022-09-23T05:39:29.788Z,30.90
2022-09-23T05:40:48.981Z,30.48
2022-09-23T05:42:07.376Z,30.62
2022-09-23T05:43:26.294Z,30.12
2022-09-23T05:44:44.622Z,30.02
2022-09-23T05:46:07.201Z,29.32
2022-09-23T05:47:25.808Z,30.02
2022-09-23T05:48:43.718Z,29.67
2022-09-23T05:50:02.158Z,29.53
2022-09-23T05:51:19.666Z,29.43
2022-09-23T05:52:38.835Z,29.65
2022-09-23T05:53:56.714Z,29.32
2022-09-23T05:55:15.580Z,28.98
2022-09-23T05:56:32.953Z,28.89
2022-09-23T05:57:51.051Z,29.02
2022-09-23T05:59:09.553Z,28.74
2022-09-23T06:00:27.063Z,28.91
2022-09-23T06:01:44.977Z,28.67
2022-09-23T06:03:02.420Z,28.89
2022-09-23T06:04:20.533Z,28.56
2022-09-23T06:05:38.060Z,28.72
2022-09-23T06:06:55.958Z,28.78
2022-09-23T06:08:13.274Z,28.82
2022-09-23T06:09:36.232Z,28.89
2022-09-23T06:10:54.667Z,28.95
2022-09-23T06:12:12.130Z,29.13
2022-09-23T06:13:32.685Z,28.78
2022-09-23T06:14:50.637Z,29.39
2022-09-23T06:16:08.695Z,29.31
2022-09-23T06:17:27.736Z,29.19
2022-09-23T06:18:45.595Z,29.26
2022-09-23T06:20:04.850Z,29.24
2022-09-23T06:21:23.249Z,29.14
2022-09-23T06:22:41.164Z,29.72
2022-09-23T06:23:59.531Z,29.29
2022-09-23T06:25:30.163Z,29.22
2022-09-23T06:26:50.391Z,29.56
2022-09-23T06:28:10.759Z,29.43
2022-09-23T06:29:33.828Z,29.43
2022-09-23T06:30:59.653Z,29.51
2022-09-23T06:32:23.922Z,29.80
2022-09-23T06:35:45.632Z,29.66
2022-09-23T06:37:17.246Z,30.14
2022-09-23T06:38:30.955Z,29.84
2022-09-23T06:39:54.605Z,29.90
2022-09-23T06:41:15.980Z,30.14
2022-09-23T06:42:36.790Z,29.73
2022-09-23T06:43:56.169Z,30.35
2022-09-23T06:45:15.558Z,30.23
2022-09-23T06:46:36.859Z,30.20
2022-09-23T06:49:54.129Z,29.99
2022-09-23T06:51:24.508Z,29.45
2022-09-23T06:52:54.369Z,29.56
2022-09-23T06:54:13.748Z,29.89
2022-09-23T06:55:40.738Z,29.72
2022-09-23T06:57:08.368Z,29.33
2022-09-23T06:58:29.160Z,29.35
2022-09-23T06:59:49.408Z,29.37
2022-09-23T07:01:09.445Z,29.26
2022-09-23T07:02:30.121Z,29.44
2022-09-23T07:03:52.106Z,29.11
2022-09-23T07:05:11.779Z,29.59
2022-09-23T07:06:30.673Z,29.67
2022-09-23T07:07:53.062Z,29.53
2022-09-23T07:09:15.665Z,29.51
2022-09-23T07:10:34.984Z,29.90
2022-09-23T07:11:57.592Z,29.61
2022-09-23T07:13:18.156Z,29.66
2022-09-23T07:14:38.353Z,29.64
2022-09-23T07:16:01.577Z,29.66
2022-09-23T07:17:25.056Z,29.72
2022-09-23T07:18:46.827Z,29.47
2022-09-23T07:20:07.741Z,29.69
2022-09-23T07:21:28.050Z,29.48
2022-09-23T07:22:56.097Z,29.76
2022-09-23T07:24:18.543Z,29.50
2022-09-23T07:25:39.489Z,29.63
2022-09-23T07:27:02.797Z,29.56
2022-09-23T07:28:23.665Z,29.25
2022-09-23T07:29:48.606Z,29.22
2022-09-23T07:31:11.187Z,29.41
2022-09-23T07:32:40.899Z,29.15
2022-09-23T07:33:54.572Z,29.80
2022-09-23T07:35:14.514Z,29.50
2022-09-23T07:36:33.067Z,29.40
2022-09-23T07:37:52.501Z,29.54
2022-09-23T07:39:11.858Z,29.05
2022-09-23T07:40:35.661Z,29.20
2022-09-23T07:41:56.384Z,29.36
2022-09-23T07:43:19.504Z,29.15
2022-09-23T07:44:39.875Z,29.42
2022-09-23T07:46:02.726Z,29.30
2022-09-23T07:47:25.049Z,29.27
2022-09-23T07:48:49.358Z,29.40
2022-09-23T07:50:09.283Z,29.63
2022-09-23T07:51:33.241Z,29.31
2022-09-23T07:52:53.137Z,29.49
2022-09-23T07:54:18.955Z,29.39
2022-09-23T07:55:37.367Z,29.71
2022-09-23T07:57:01.949Z,29.39
2022-09-23T07:58:22.928Z,30.10
2022-09-23T07:59:42.817Z,30.05
2022-09-23T08:01:01.949Z,29.88
2022-09-23T08:02:21.878Z,30.33
2022-09-23T08:03:44.283Z,30.07
2022-09-23T08:05:06.585Z,29.84
2022-09-23T08:06:33.072Z,30.17
2022-09-23T08:07:54.364Z,30.17
2022-09-23T08:09:13.792Z,30.40
2022-09-23T08:10:33.992Z,29.82
2022-09-23T08:11:58.734Z,29.86
2022-09-23T08:14:49.241Z,29.79
2022-09-23T08:16:08.553Z,29.66
2022-09-23T08:17:35.619Z,29.98
2022-09-23T08:20:28.707Z,30.17
2022-09-23T08:21:47.737Z,30.35
2022-09-23T08:23:07.469Z,30.78
2022-09-23T08:24:29.774Z,30.34
2022-09-23T08:25:50.266Z,30.16
2022-09-23T08:29:10.705Z,30.44
2022-09-23T08:30:29.660Z,30.27
2022-09-23T08:31:49.751Z,30.87
2022-09-23T08:35:03.584Z,30.67
2022-09-23T08:36:24.544Z,30.79
2022-09-23T08:39:36.900Z,30.95
2022-09-23T08:42:48.827Z,30.67
2022-09-23T08:44:11.606Z,31.18
2022-09-23T08:45:37.896Z,31.03
2022-09-23T08:47:02.450Z,30.91
2022-09-23T08:48:23.351Z,31.14
2022-09-23T08:49:44.596Z,31.15
2022-09-23T08:51:08.993Z,30.99
2022-09-23T08:52:28.907Z,31.02
2022-09-23T08:53:49.134Z,31.00
2022-09-23T08:55:09.323Z,31.67
2022-09-23T08:56:29.784Z,31.33
2022-09-23T08:58:02.194Z,31.54
2022-09-23T08:59:15.972Z,31.47
2022-09-23T09:04:28.804Z,31.68
2022-09-23T09:05:58.204Z,31.37
2022-09-23T09:09:05.902Z,31.89
2022-09-23T09:10:27.054Z,31.57
2022-09-23T09:11:48.566Z,31.78
2022-09-23T09:13:08.206Z,31.75
2022-09-23T09:14:32.595Z,31.84
2022-09-23T09:16:07.335Z,32.27
2022-09-23T09:17:25.636Z,32.08
2022-09-23T09:18:45.507Z,32.01
2022-09-23T09:20:09.367Z,31.90
2022-09-23T09:21:30.295Z,32.00
2022-09-23T09:22:49.712Z,32.01
2022-09-23T09:24:10.441Z,32.09
2022-09-23T09:25:34.065Z,32.42
2022-09-23T09:26:54.410Z,32.45
2022-09-23T09:28:20.828Z,32.23
2022-09-23T09:29:46.359Z,32.21
2022-09-23T09:31:07.384Z,32.66
2022-09-23T09:32:30.883Z,32.27
2022-09-23T09:33:55.505Z,32.33
2022-09-23T09:35:18.062Z,31.89
2022-09-23T09:36:37.942Z,32.07
2022-09-23T09:37:57.795Z,32.29
2022-09-23T09:39:17.671Z,32.44
2022-09-23T09:40:37.387Z,32.43
2022-09-23T09:43:47.645Z,32.78
2022-09-23T09:47:08.452Z,32.97
2022-09-23T09:48:27.794Z,33.16
2022-09-23T09:49:47.670Z,32.90
2022-09-23T09:53:06.762Z,32.97
2022-09-23T09:54:26.846Z,32.99
2022-09-23T09:55:46.314Z,33.10
2022-09-23T10:02:42.825Z,33.19
2022-09-23T10:04:14.895Z,33.31
2022-09-23T10:05:36.795Z,33.50
2022-09-23T10:06:57.499Z,33.78
2022-09-23T10:08:15.308Z,33.82
2022-09-23T10:09:36.621Z,33.83
2022-09-23T10:11:08.516Z,34.08
2022-09-23T10:12:27.178Z,34.16
2022-09-23T10:13:45.587Z,34.24
2022-09-23T10:15:09.353Z,34.18
2022-09-23T10:16:30.007Z,34.04
2022-09-23T10:17:52.821Z,34.19
2022-09-23T10:19:12.502Z,34.03
2022-09-23T10:20:40.029Z,34.31
2022-09-23T10:22:06.293Z,34.08
2022-09-23T10:23:26.625Z,34.39
2022-09-23T10:24:47.313Z,34.66
2022-09-23T10:26:09.564Z,34.36
2022-09-23T10:27:32.386Z,34.17
2022-09-23T10:28:51.532Z,34.72
2022-09-23T10:33:52.024Z,34.43
2022-09-23T10:35:14.596Z,34.59
2022-09-23T10:36:35.900Z,34.83
2022-09-23T10:37:55.800Z,34.55
2022-09-23T10:39:15.900Z,34.44
2022-09-23T10:40:35.159Z,34.37
2022-09-23T10:43:48.437Z,34.75
2022-09-23T10:45:11.720Z,35.01
2022-09-23T10:46:32.529Z,34.93
2022-09-23T10:47:53.802Z,35.21
2022-09-23T10:49:13.200Z,35.57
2022-09-23T10:50:33.890Z,35.67
2022-09-23T10:51:54.731Z,35.59
2022-09-23T10:53:21.362Z,35.88
2022-09-23T10:56:33.482Z,35.94
2022-09-23T10:57:58.406Z,36.01
2022-09-23T10:59:17.417Z,35.91
2022-09-23T11:00:36.839Z,36.07
2022-09-23T11:01:56.293Z,36.24
2022-09-23T11:03:17.965Z,36.73
2022-09-23T11:04:43.196Z,36.74
2022-09-23T11:06:11.945Z,36.57
2022-09-23T11:07:31.832Z,36.65
2022-09-23T11:08:53.666Z,36.66
2022-09-23T11:10:23.188Z,36.80
2022-09-23T11:11:39.647Z,36.65
2022-09-23T11:12:59.537Z,36.86
2022-09-23T11:14:19.679Z,37.12
2022-09-23T11:15:40.039Z,37.12
2022-09-23T11:16:58.039Z,37.23
2022-09-23T11:18:20.592Z,37.60
2022-09-23T11:19:45.573Z,37.99
2022-09-23T11:21:07.573Z,37.89
2022-09-23T11:22:30.160Z,37.87
2022-09-23T11:23:54.598Z,37.97
2022-09-23T11:25:21.045Z,37.93
2022-09-23T11:26:43.700Z,38.54
2022-09-23T11:28:07.716Z,38.58
2022-09-23T11:29:29.454Z,38.57
2022-09-23T11:30:48.008Z,38.53
2022-09-23T11:32:06.924Z,38.13
2022-09-23T11:33:28.360Z,38.68
2022-09-23T11:34:52.530Z,39.17
2022-09-23T11:36:10.235Z,39.24
2022-09-23T11:37:31.917Z,39.64
2022-09-23T11:38:50.289Z,39.75
2022-09-23T11:40:10.071Z,40.10
2022-09-23T11:41:29.661Z,39.93
2022-09-23T11:42:51.280Z,40.25
2022-09-23T11:44:10.579Z,40.32
2022-09-23T11:45:30.011Z,40.05
2022-09-23T11:48:44.372Z,40.49
2022-09-23T11:50:04.788Z,40.18
2022-09-23T11:51:24.710Z,40.45
2022-09-23T11:52:43.059Z,40.54
2022-09-23T11:54:01.455Z,40.31
2022-09-23T11:55:22.984Z,40.92
2022-09-23T11:56:46.731Z,40.56
2022-09-23T11:58:10.795Z,40.77
2022-09-23T11:59:40.084Z,40.51
2022-09-23T12:01:01.100Z,40.70
2022-09-23T12:02:26.916Z,40.89
2022-09-23T12:03:45.808Z,41.19
2022-09-23T12:05:04.873Z,41.46
2022-09-23T12:06:23.750Z,40.95
2022-09-23T12:07:42.730Z,41.41
2022-09-23T12:09:02.110Z,41.03
2022-09-23T12:10:20.485Z,41.24
2022-09-23T12:11:42.386Z,41.66
2022-09-23T12:13:03.721Z,41.52
2022-09-23T12:14:22.044Z,41.80
2022-09-23T12:15:42.806Z,41.89
2022-09-23T12:17:02.768Z,41.87
2022-09-23T12:18:24.687Z,42.05
2022-09-23T12:19:44.548Z,42.13
2022-09-23T12:21:06.835Z,42.71
2022-09-23T12:22:26.341Z,42.68
2022-09-23T12:23:51.646Z,42.54
2022-09-23T12:25:09.490Z,42.63
2022-09-23T12:26:30.760Z,42.98
2022-09-23T12:27:51.840Z,42.78
2022-09-23T12:29:13.086Z,43.02
2022-09-23T12:32:23.584Z,43.17
2022-09-23T12:33:42.954Z,43.26
2022-09-23T12:35:02.335Z,43.35
2022-09-23T12:36:20.165Z,43.24
2022-09-23T12:37:39.826Z,43.21
2022-09-23T12:39:02.837Z,43.63
2022-09-23T12:40:25.116Z,43.74
2022-09-23T12:41:48.790Z,43.72
2022-09-23T12:43:07.300Z,43.90
2022-09-23T12:44:25.650Z,43.94
2022-09-23T12:45:45.849Z,44.18
2022-09-23T12:47:04.703Z,44.72
2022-09-23T12:48:24.562Z,44.69
2022-09-23T12:49:43.405Z,44.78
2022-09-23T12:51:01.295Z,44.60
2022-09-23T12:52:19.895Z,44.71
2022-09-23T12:53:37.756Z,44.86
2022-09-23T12:54:57.678Z,44.88
2022-09-23T12:56:15.519Z,44.98
2022-09-23T12:57:34.889Z,45.23
2022-09-23T12:58:53.760Z,45.08
2022-09-23T13:00:12.649Z,45.12
2022-09-23T13:01:31.736Z,45.55
2022-09-23T13:02:50.282Z,45.19
2022-09-23T13:04:08.325Z,45.70
2022-09-23T13:05:26.197Z,46.09
2022-09-23T13:06:45.015Z,46.09
2022-09-23T13:08:04.393Z,45.99
2022-09-23T13:09:22.545Z,46.34
2022-09-23T13:10:40.885Z,46.53
2022-09-23T13:11:59.296Z,46.28
2022-09-23T13:13:18.116Z,46.55
2022-09-23T13:14:36.018Z,46.45
2022-09-23T13:15:53.378Z,46.58
2022-09-23T13:17:11.248Z,46.35
2022-09-23T13:18:36.150Z,46.52
2022-09-23T13:19:55.800Z,46.59
2022-09-23T13:21:15.741Z,46.93
2022-09-23T13:22:35.042Z,47.12
2022-09-23T13:23:53.452Z,47.58
2022-09-23T13:25:13.410Z,47.09
2022-09-23T13:26:35.144Z,47.63
2022-09-23T13:27:56.463Z,47.67
2022-09-23T13:29:14.625Z,47.66
2022-09-23T13:32:23.985Z,48.76
2022-09-23T13:33:41.898Z,48.23
2022-09-23T13:35:02.382Z,48.60
2022-09-23T13:36:19.736Z,48.69
2022-09-23T13:37:40.587Z,48.40
2022-09-23T13:38:59.011Z,48.44
2022-09-23T13:40:16.956Z,48.28
2022-09-23T13:41:34.575Z,48.35
2022-09-23T13:42:51.059Z,48.75
2022-09-23T13:44:08.921Z,48.49
2022-09-23T13:45:26.903Z,48.49
2022-09-23T13:46:44.469Z,48.39
2022-09-23T13:48:02.348Z,48.74
2022-09-23T13:49:21.454Z,48.88
2022-09-23T13:50:39.297Z,48.51
2022-09-23T13:51:57.202Z,48.77
2022-09-23T13:53:15.053Z,48.62
2022-09-23T13:54:32.918Z,48.90
2022-09-23T13:55:52.583Z,48.76
2022-09-23T13:57:10.157Z,48.77
2022-09-23T13:58:26.569Z,48.84
2022-09-23T13:59:44.421Z,49.06
2022-09-23T14:01:02.742Z,49.03
2022-09-23T14:02:21.117Z,49.53
2022-09-23T14:03:39.056Z,49.01
2022-09-23T14:04:56.922Z,48.92
2022-09-23T14:06:13.577Z,49.10
2022-09-23T14:07:31.711Z,49.19
2022-09-23T14:08:49.573Z,49.32
2022-09-23T14:10:07.434Z,49.90
2022-09-23T14:11:25.397Z,49.89
2022-09-23T14:12:45.867Z,49.43
2022-09-23T14:14:04.137Z,49.84
2022-09-23T14:15:22.009Z,49.73
2022-09-23T14:16:39.947Z,50.08
2022-09-23T14:17:58.588Z,50.08
2022-09-23T14:19:16.762Z,50.34
2022-09-23T14:20:34.089Z,50.37
2022-09-23T14:21:52.014Z,50.08
2022-09-23T14:23:10.020Z,50.36
2022-09-23T14:24:27.932Z,50.35
2022-09-23T14:25:46.074Z,50.67
2022-09-23T14:27:02.555Z,50.38
2022-09-23T14:28:20.542Z,50.47
2022-09-23T14:29:38.327Z,49.85
2022-09-23T14:30:56.176Z,50.08
2022-09-23T14:32:13.796Z,50.02
2022-09-23T14:33:31.687Z,49.95
2022-09-23T14:34:53.435Z,50.17
2022-09-23T14:36:11.298Z,50.30
2022-09-23T14:37:29.189Z,49.87
2022-09-23T14:38:45.923Z,50.23
2022-09-23T14:40:03.775Z,49.93
2022-09-23T14:41:22.243Z,50.49
2022-09-23T14:42:42.166Z,50.56
2022-09-23T14:43:59.505Z,49.92
2022-09-23T14:45:17.364Z,50.34
2022-09-23T14:46:35.204Z,50.14
2022-09-23T14:47:53.182Z,50.54
2022-09-23T14:49:11.008Z,50.35
2022-09-23T14:50:28.826Z,50.49
2022-09-23T14:51:47.006Z,50.68
2022-09-23T14:53:04.429Z,51.07
2022-09-23T14:54:21.862Z,50.63
2022-09-23T14:55:39.739Z,50.61
2022-09-23T14:56:57.629Z,50.85
2022-09-23T14:58:15.797Z,50.73
2022-09-23T14:59:33.646Z,51.06
2022-09-23T15:00:50.109Z,50.82
2022-09-23T15:02:08.010Z,50.63
2022-09-23T15:03:25.889Z,51.18
2022-09-23T15:04:43.720Z,51.36
2022-09-23T15:06:04.107Z,51.59
2022-09-23T15:07:24.255Z,51.57
2022-09-23T15:08:42.645Z,51.29
2022-09-23T15:10:01.336Z,50.97
2022-09-23T15:11:19.156Z,51.39
2022-09-23T15:12:35.623Z,51.50
2022-09-23T15:13:53.525Z,51.43
2022-09-23T15:15:10.848Z,51.61
2022-09-23T15:16:29.093Z,51.91
2022-09-23T15:17:46.967Z,51.94
2022-09-23T15:19:04.870Z,51.88
2022-09-23T15:20:21.332Z,52.07
2022-09-23T15:21:39.240Z,52.11
2022-09-23T15:22:56.861Z,52.29
2022-09-23T15:24:14.765Z,51.87
2022-09-23T15:25:32.602Z,51.93
2022-09-23T15:26:50.664Z,51.93
2022-09-23T15:28:08.492Z,52.37
2022-09-23T15:29:26.680Z,52.23
2022-09-23T15:30:45.047Z,52.15
2022-09-23T15:32:02.605Z,51.86
2022-09-23T15:33:20.687Z,51.70
2022-09-23T15:34:38.517Z,51.63
2022-09-23T15:35:57.141Z,51.65
2022-09-23T15:37:15.219Z,51.62
2022-09-23T15:38:33.077Z,51.70
2022-09-23T15:39:50.891Z,51.66
2022-09-23T15:41:08.792Z,51.66
2022-09-23T15:42:26.943Z,51.53
2022-09-23T15:43:44.805Z,51.80
2022-09-23T15:45:02.716Z,51.20
2022-09-23T15:46:20.603Z,51.46
2022-09-23T15:47:38.469Z,50.96
2022-09-23T15:49:08.339Z,50.95
2022-09-23T15:50:19.508Z,51.17
2022-09-23T15:51:37.349Z,51.16
2022-09-23T15:52:55.201Z,51.34
2022-09-23T15:54:13.041Z,51.10
2022-09-23T15:55:30.889Z,51.19
2022-09-23T15:56:48.799Z,51.51
2022-09-23T15:58:06.701Z,51.73
2022-09-23T15:59:24.537Z,51.69
2022-09-23T16:00:42.709Z,51.92
2022-09-23T16:02:00.573Z,51.90
2022-09-23T16:03:18.411Z,51.63
2022-09-23T16:04:36.342Z,51.63
2022-09-23T16:05:54.264Z,51.71
2022-09-23T16:07:12.394Z,51.59
2022-09-23T16:08:30.326Z,51.55
2022-09-23T16:09:48.185Z,51.58
2022-09-23T16:11:05.545Z,51.38
2022-09-23T16:12:27.005Z,51.59
2022-09-23T16:13:44.891Z,51.35
2022-09-23T16:15:02.775Z,51.79
2022-09-23T16:16:20.810Z,51.76
2022-09-23T16:17:38.717Z,51.78
2022-09-23T16:18:55.452Z,51.43
2022-09-23T16:20:13.302Z,51.28
2022-09-23T16:21:31.440Z,51.69
2022-09-23T16:22:49.333Z,51.60
2022-09-23T16:24:07.158Z,51.56
2022-09-23T16:25:25.706Z,51.46
2022-09-23T16:26:42.569Z,51.34
2022-09-23T16:28:01.071Z,51.34
2022-09-23T16:29:18.964Z,51.45
2022-09-23T16:30:36.793Z,51.25
2022-09-23T16:31:54.824Z,51.52
2022-09-23T16:33:12.692Z,51.42
2022-09-23T16:34:30.555Z,51.28
2022-09-23T16:35:46.966Z,51.34
2022-09-23T16:37:04.896Z,50.99
2022-09-23T16:38:23.046Z,50.83
2022-09-23T16:39:40.464Z,50.80
2022-09-23T16:40:58.445Z,51.07
2022-09-23T16:42:16.701Z,51.08
2022-09-23T16:43:38.311Z,51.11
2022-09-23T16:44:54.790Z,51.05
2022-09-23T16:46:12.783Z,51.60
2022-09-23T16:47:30.662Z,51.63
2022-09-23T16:48:52.600Z,52.09
2022-09-23T16:50:11.952Z,51.47
2022-09-23T16:51:30.302Z,51.75
2022-09-23T16:52:48.242Z,51.62
2022-09-23T16:54:06.306Z,51.34
2022-09-23T16:55:25.192Z,51.37
2022-09-23T16:56:43.114Z,51.21
2022-09-23T16:58:01.269Z,51.25
2022-09-23T16:59:19.135Z,51.20
2022-09-23T17:00:35.663Z,51.26
2022-09-23T17:01:53.565Z,50.75
2022-09-23T17:03:11.439Z,50.65
2022-09-23T17:04:29.609Z,50.31
2022-09-23T17:05:47.469Z,50.58
2022-09-23T17:07:05.319Z,50.91
2022-09-23T17:08:23.212Z,50.21
2022-09-23T17:09:41.245Z,50.55
2022-09-23T17:10:59.321Z,50.41
2022-09-23T17:12:17.178Z,50.34
2022-09-23T17:13:35.035Z,50.63
2022-09-23T17:14:53.034Z,50.49
2022-09-23T17:16:11.009Z,50.39
2022-09-23T17:17:29.794Z,50.44
2022-09-23T17:18:47.682Z,50.38
2022-09-23T17:20:05.586Z,50.79
2022-09-23T17:21:23.604Z,50.61
2022-09-23T17:22:40.171Z,50.40
2022-09-23T17:23:58.417Z,50.52
2022-09-23T17:25:16.245Z,50.81
2022-09-23T17:26:34.106Z,50.90
2022-09-23T17:27:52.523Z,51.12
2022-09-23T17:29:10.556Z,51.02
2022-09-23T17:30:28.437Z,50.99
2022-09-23T17:31:46.387Z,50.91
2022-09-23T17:33:04.214Z,50.93
2022-09-23T17:34:22.098Z,50.91
2022-09-23T17:35:40.088Z,50.90
2022-09-23T17:36:58.889Z,50.85
2022-09-23T17:38:17.309Z,51.16
2022-09-23T17:39:36.219Z,51.02
2022-09-23T17:40:54.113Z,51.03
2022-09-23T17:42:13.344Z,50.92